sensor_id;sensor_type;location;lat;lon;timestamp;P1;durP1;ratioP1;P2;durP2;ratioP2
22814;SDS011;11574;51.058;13.712;2023-04-03T00:04:52;5.63;;;1.33;;
22814;SDS011;11574;51.058;13.712;2023-04-03T00:09:56;3.87;;;1.37;;
22814;SDS011;11574;51.058;13.712;2023-04-03T00:14:58;7.20;;;1.60;;
22814;SDS011;11574;51.058;13.712;2023-04-03T00:20:01;5.13;;;1.30;;
22814;SDS011;11574;51.058;13.712;2023-04-03T00:25:05;4.70;;;1.23;;
22814;SDS011;11574;51.058;13.712;2023-04-03T00:30:09;4.50;;;1.53;;
22814;SDS011;11574;51.058;13.712;2023-04-03T00:35:12;8.17;;;1.60;;
22814;SDS011;11574;51.058;13.712;2023-04-03T00:40:17;6.37;;;1.10;;
22814;SDS011;11574;51.058;13.712;2023-04-03T00:50:43;7.33;;;1.80;;
22814;SDS011;11574;51.058;13.712;2023-04-03T00:55:47;6.00;;;1.50;;
22814;SDS011;11574;51.058;13.712;2023-04-03T01:00:52;4.17;;;1.30;;
22814;SDS011;11574;51.058;13.712;2023-04-03T01:05:57;4.13;;;1.43;;
22814;SDS011;11574;51.058;13.712;2023-04-03T01:11:01;3.20;;;1.40;;
22814;SDS011;11574;51.058;13.712;2023-04-03T01:16:12;5.47;;;1.87;;
22814;SDS011;11574;51.058;13.712;2023-04-03T01:21:36;5.23;;;1.20;;
22814;SDS011;11574;51.058;13.712;2023-04-03T01:26:48;5.17;;;1.73;;
22814;SDS011;11574;51.058;13.712;2023-04-03T01:31:52;3.27;;;1.20;;
22814;SDS011;11574;51.058;13.712;2023-04-03T01:36:55;5.53;;;1.80;;
22814;SDS011;11574;51.058;13.712;2023-04-03T01:41:57;6.57;;;1.30;;
22814;SDS011;11574;51.058;13.712;2023-04-03T01:47:01;7.10;;;1.50;;
22814;SDS011;11574;51.058;13.712;2023-04-03T01:52:04;4.67;;;1.33;;
22814;SDS011;11574;51.058;13.712;2023-04-03T01:57:06;5.13;;;1.20;;
22814;SDS011;11574;51.058;13.712;2023-04-03T02:02:09;5.57;;;1.50;;
22814;SDS011;11574;51.058;13.712;2023-04-03T02:07:12;5.23;;;1.40;;
22814;SDS011;11574;51.058;13.712;2023-04-03T02:12:14;3.20;;;1.30;;
22814;SDS011;11574;51.058;13.712;2023-04-03T02:17:18;3.60;;;1.20;;
22814;SDS011;11574;51.058;13.712;2023-04-03T02:22:20;6.87;;;1.50;;
22814;SDS011;11574;51.058;13.712;2023-04-03T02:27:23;5.50;;;1.50;;
22814;SDS011;11574;51.058;13.712;2023-04-03T02:32:26;2.13;;;1.03;;
22814;SDS011;11574;51.058;13.712;2023-04-03T02:37:28;5.57;;;1.53;;
22814;SDS011;11574;51.058;13.712;2023-04-03T02:42:31;3.63;;;1.57;;
22814;SDS011;11574;51.058;13.712;2023-04-03T02:47:35;4.43;;;1.50;;
22814;SDS011;11574;51.058;13.712;2023-04-03T02:52:37;4.87;;;1.27;;
22814;SDS011;11574;51.058;13.712;2023-04-03T02:57:39;4.13;;;1.50;;
22814;SDS011;11574;51.058;13.712;2023-04-03T03:02:42;5.40;;;1.30;;
22814;SDS011;11574;51.058;13.712;2023-04-03T03:07:45;8.37;;;1.73;;
22814;SDS011;11574;51.058;13.712;2023-04-03T03:12:47;4.67;;;1.20;;
22814;SDS011;11574;51.058;13.712;2023-04-03T03:17:50;4.47;;;1.40;;
22814;SDS011;11574;51.058;13.712;2023-04-03T03:22:52;7.03;;;1.50;;
22814;SDS011;11574;51.058;13.712;2023-04-03T03:27:55;6.47;;;1.30;;
22814;SDS011;11574;51.058;13.712;2023-04-03T03:32:58;5.53;;;1.50;;
22814;SDS011;11574;51.058;13.712;2023-04-03T03:38:00;11.47;;;1.57;;
22814;SDS011;11574;51.058;13.712;2023-04-03T03:43:03;6.60;;;1.80;;
22814;SDS011;11574;51.058;13.712;2023-04-03T03:48:07;6.53;;;1.80;;
22814;SDS011;11574;51.058;13.712;2023-04-03T03:53:09;8.20;;;2.50;;
22814;SDS011;11574;51.058;13.712;2023-04-03T03:58:11;6.97;;;1.87;;
22814;SDS011;11574;51.058;13.712;2023-04-03T04:03:15;6.33;;;1.60;;
22814;SDS011;11574;51.058;13.712;2023-04-03T04:08:17;4.63;;;1.60;;
22814;SDS011;11574;51.058;13.712;2023-04-03T04:13:20;4.80;;;1.83;;
22814;SDS011;11574;51.058;13.712;2023-04-03T04:18:24;6.43;;;1.93;;
22814;SDS011;11574;51.058;13.712;2023-04-03T04:23:26;10.40;;;2.20;;
22814;SDS011;11574;51.058;13.712;2023-04-03T04:28:28;8.77;;;2.00;;
22814;SDS011;11574;51.058;13.712;2023-04-03T04:33:32;6.47;;;2.00;;
22814;SDS011;11574;51.058;13.712;2023-04-03T04:38:34;8.47;;;1.70;;
22814;SDS011;11574;51.058;13.712;2023-04-03T04:43:37;7.73;;;1.70;;
22814;SDS011;11574;51.058;13.712;2023-04-03T04:48:41;6.00;;;1.40;;
22814;SDS011;11574;51.058;13.712;2023-04-03T04:53:43;6.33;;;1.43;;
22814;SDS011;11574;51.058;13.712;2023-04-03T04:58:46;16.63;;;2.70;;
22814;SDS011;11574;51.058;13.712;2023-04-03T05:03:49;6.13;;;1.43;;
22814;SDS011;11574;51.058;13.712;2023-04-03T05:08:54;10.17;;;2.57;;
22814;SDS011;11574;51.058;13.712;2023-04-03T05:13:57;5.80;;;1.73;;
22814;SDS011;11574;51.058;13.712;2023-04-03T05:19:00;3.00;;;1.50;;
22814;SDS011;11574;51.058;13.712;2023-04-03T05:24:03;5.43;;;1.70;;
22814;SDS011;11574;51.058;13.712;2023-04-03T05:29:05;6.00;;;1.40;;
22814;SDS011;11574;51.058;13.712;2023-04-03T05:34:09;7.03;;;1.90;;
22814;SDS011;11574;51.058;13.712;2023-04-03T05:39:11;9.37;;;2.03;;
22814;SDS011;11574;51.058;13.712;2023-04-03T05:44:13;8.30;;;1.70;;
22814;SDS011;11574;51.058;13.712;2023-04-03T05:49:20;6.33;;;1.80;;
22814;SDS011;11574;51.058;13.712;2023-04-03T05:54:23;7.13;;;1.87;;
22814;SDS011;11574;51.058;13.712;2023-04-03T05:59:26;5.03;;;1.77;;
22814;SDS011;11574;51.058;13.712;2023-04-03T06:04:29;10.47;;;1.67;;
22814;SDS011;11574;51.058;13.712;2023-04-03T06:09:32;5.53;;;1.60;;
22814;SDS011;11574;51.058;13.712;2023-04-03T06:14:34;4.87;;;1.47;;
22814;SDS011;11574;51.058;13.712;2023-04-03T06:19:38;4.97;;;1.90;;
22814;SDS011;11574;51.058;13.712;2023-04-03T06:24:40;10.43;;;2.00;;
22814;SDS011;11574;51.058;13.712;2023-04-03T06:29:43;8.17;;;1.47;;
22814;SDS011;11574;51.058;13.712;2023-04-03T06:34:48;9.27;;;1.90;;
22814;SDS011;11574;51.058;13.712;2023-04-03T06:39:51;6.40;;;1.67;;
22814;SDS011;11574;51.058;13.712;2023-04-03T06:44:55;7.03;;;2.00;;
22814;SDS011;11574;51.058;13.712;2023-04-03T06:49:59;12.30;;;1.50;;
22814;SDS011;11574;51.058;13.712;2023-04-03T06:55:03;8.87;;;2.03;;
22814;SDS011;11574;51.058;13.712;2023-04-03T07:00:06;8.77;;;1.67;;
22814;SDS011;11574;51.058;13.712;2023-04-03T07:05:11;8.70;;;1.80;;
22814;SDS011;11574;51.058;13.712;2023-04-03T07:10:13;6.43;;;1.70;;
22814;SDS011;11574;51.058;13.712;2023-04-03T07:15:15;7.07;;;1.83;;
22814;SDS011;11574;51.058;13.712;2023-04-03T07:20:19;2.90;;;1.60;;
22814;SDS011;11574;51.058;13.712;2023-04-03T07:25:21;10.13;;;2.07;;
22814;SDS011;11574;51.058;13.712;2023-04-03T07:30:24;5.70;;;1.73;;
22814;SDS011;11574;51.058;13.712;2023-04-03T07:35:32;4.70;;;1.40;;
22814;SDS011;11574;51.058;13.712;2023-04-03T07:40:34;4.93;;;1.53;;
22814;SDS011;11574;51.058;13.712;2023-04-03T07:45:36;7.40;;;1.63;;
22814;SDS011;11574;51.058;13.712;2023-04-03T07:50:40;5.23;;;1.70;;
22814;SDS011;11574;51.058;13.712;2023-04-03T07:55:45;5.47;;;1.63;;
22814;SDS011;11574;51.058;13.712;2023-04-03T08:00:47;6.70;;;2.03;;
22814;SDS011;11574;51.058;13.712;2023-04-03T08:05:51;3.07;;;1.60;;
22814;SDS011;11574;51.058;13.712;2023-04-03T08:10:54;3.70;;;1.80;;
22814;SDS011;11574;51.058;13.712;2023-04-03T08:16:06;6.07;;;2.10;;
22814;SDS011;11574;51.058;13.712;2023-04-03T08:21:11;6.30;;;1.33;;
22814;SDS011;11574;51.058;13.712;2023-04-03T08:26:16;6.60;;;2.33;;
22814;SDS011;11574;51.058;13.712;2023-04-03T08:31:19;6.10;;;1.60;;
22814;SDS011;11574;51.058;13.712;2023-04-03T08:36:24;8.63;;;1.83;;
22814;SDS011;11574;51.058;13.712;2023-04-03T08:41:29;3.40;;;1.30;;
22814;SDS011;11574;51.058;13.712;2023-04-03T08:46:35;5.13;;;1.83;;
22814;SDS011;11574;51.058;13.712;2023-04-03T08:51:40;11.40;;;2.37;;
22814;SDS011;11574;51.058;13.712;2023-04-03T08:56:45;3.83;;;1.40;;
22814;SDS011;11574;51.058;13.712;2023-04-03T09:01:47;5.17;;;1.53;;
22814;SDS011;11574;51.058;13.712;2023-04-03T09:06:55;5.57;;;1.40;;
22814;SDS011;11574;51.058;13.712;2023-04-03T09:12:01;10.03;;;1.83;;
22814;SDS011;11574;51.058;13.712;2023-04-03T09:17:11;6.87;;;1.30;;
22814;SDS011;11574;51.058;13.712;2023-04-03T09:22:18;3.87;;;1.37;;
22814;SDS011;11574;51.058;13.712;2023-04-03T09:27:22;5.43;;;1.77;;
22814;SDS011;11574;51.058;13.712;2023-04-03T09:32:26;13.00;;;1.37;;
22814;SDS011;11574;51.058;13.712;2023-04-03T09:37:37;4.73;;;1.70;;
22814;SDS011;11574;51.058;13.712;2023-04-03T09:42:41;9.17;;;1.67;;
22814;SDS011;11574;51.058;13.712;2023-04-03T09:47:44;5.90;;;1.37;;
22814;SDS011;11574;51.058;13.712;2023-04-03T09:52:49;10.20;;;1.80;;
22814;SDS011;11574;51.058;13.712;2023-04-03T09:57:52;8.00;;;1.50;;
22814;SDS011;11574;51.058;13.712;2023-04-03T10:02:55;2.80;;;0.80;;
22814;SDS011;11574;51.058;13.712;2023-04-03T10:08:20;5.80;;;1.17;;
22814;SDS011;11574;51.058;13.712;2023-04-03T10:13:24;7.13;;;1.20;;
22814;SDS011;11574;51.058;13.712;2023-04-03T10:18:31;5.13;;;1.40;;
22814;SDS011;11574;51.058;13.712;2023-04-03T10:23:37;5.67;;;1.43;;
22814;SDS011;11574;51.058;13.712;2023-04-03T10:28:43;4.63;;;2.10;;
22814;SDS011;11574;51.058;13.712;2023-04-03T10:33:52;4.57;;;1.27;;
22814;SDS011;11574;51.058;13.712;2023-04-03T10:38:57;4.47;;;1.00;;
22814;SDS011;11574;51.058;13.712;2023-04-03T10:44:06;4.63;;;1.33;;
22814;SDS011;11574;51.058;13.712;2023-04-03T10:49:18;6.83;;;1.60;;
22814;SDS011;11574;51.058;13.712;2023-04-03T10:54:30;7.40;;;1.67;;
22814;SDS011;11574;51.058;13.712;2023-04-03T10:59:35;3.53;;;1.13;;
22814;SDS011;11574;51.058;13.712;2023-04-03T11:04:39;3.07;;;1.20;;
22814;SDS011;11574;51.058;13.712;2023-04-03T11:09:44;2.70;;;0.87;;
22814;SDS011;11574;51.058;13.712;2023-04-03T11:14:47;7.97;;;1.20;;
22814;SDS011;11574;51.058;13.712;2023-04-03T11:19:57;4.70;;;1.40;;
22814;SDS011;11574;51.058;13.712;2023-04-03T11:25:06;5.93;;;1.40;;
22814;SDS011;11574;51.058;13.712;2023-04-03T11:30:20;5.83;;;1.10;;
22814;SDS011;11574;51.058;13.712;2023-04-03T11:35:23;3.87;;;0.93;;
22814;SDS011;11574;51.058;13.712;2023-04-03T11:40:28;2.13;;;0.90;;
22814;SDS011;11574;51.058;13.712;2023-04-03T11:45:35;4.93;;;1.20;;
22814;SDS011;11574;51.058;13.712;2023-04-03T11:50:41;3.37;;;1.10;;
22814;SDS011;11574;51.058;13.712;2023-04-03T11:55:46;8.30;;;1.50;;
22814;SDS011;11574;51.058;13.712;2023-04-03T12:01:04;1.93;;;1.00;;
22814;SDS011;11574;51.058;13.712;2023-04-03T12:11:34;5.63;;;1.90;;
22814;SDS011;11574;51.058;13.712;2023-04-03T12:16:42;2.73;;;1.30;;
22814;SDS011;11574;51.058;13.712;2023-04-03T12:27:25;6.27;;;2.50;;
22814;SDS011;11574;51.058;13.712;2023-04-03T12:32:48;6.33;;;1.60;;
22814;SDS011;11574;51.058;13.712;2023-04-03T12:43:22;5.33;;;1.87;;
22814;SDS011;11574;51.058;13.712;2023-04-03T12:48:27;6.13;;;1.50;;
22814;SDS011;11574;51.058;13.712;2023-04-03T12:53:31;5.40;;;1.00;;
22814;SDS011;11574;51.058;13.712;2023-04-03T12:58:35;4.07;;;1.53;;
22814;SDS011;11574;51.058;13.712;2023-04-03T13:03:38;8.70;;;2.10;;
22814;SDS011;11574;51.058;13.712;2023-04-03T13:08:47;4.90;;;1.87;;
22814;SDS011;11574;51.058;13.712;2023-04-03T13:13:59;5.03;;;1.23;;
22814;SDS011;11574;51.058;13.712;2023-04-03T13:19:02;4.33;;;1.33;;
22814;SDS011;11574;51.058;13.712;2023-04-03T13:24:04;5.80;;;1.57;;
22814;SDS011;11574;51.058;13.712;2023-04-03T13:29:17;1.70;;;1.00;;
22814;SDS011;11574;51.058;13.712;2023-04-03T13:34:21;5.33;;;1.80;;
22814;SDS011;11574;51.058;13.712;2023-04-03T13:39:27;3.27;;;1.20;;
22814;SDS011;11574;51.058;13.712;2023-04-03T13:44:32;5.93;;;1.33;;
22814;SDS011;11574;51.058;13.712;2023-04-03T13:49:35;6.07;;;1.10;;
22814;SDS011;11574;51.058;13.712;2023-04-03T13:54:38;4.80;;;1.60;;
22814;SDS011;11574;51.058;13.712;2023-04-03T13:59:42;3.40;;;1.23;;
22814;SDS011;11574;51.058;13.712;2023-04-03T14:04:46;4.37;;;0.97;;
22814;SDS011;11574;51.058;13.712;2023-04-03T14:09:49;5.60;;;1.63;;
22814;SDS011;11574;51.058;13.712;2023-04-03T14:14:53;6.07;;;1.33;;
22814;SDS011;11574;51.058;13.712;2023-04-03T14:19:57;3.03;;;0.93;;
22814;SDS011;11574;51.058;13.712;2023-04-03T14:25:00;3.53;;;1.20;;
22814;SDS011;11574;51.058;13.712;2023-04-03T14:30:05;6.03;;;1.67;;
22814;SDS011;11574;51.058;13.712;2023-04-03T14:35:08;4.63;;;0.90;;
22814;SDS011;11574;51.058;13.712;2023-04-03T14:40:11;4.37;;;1.60;;
22814;SDS011;11574;51.058;13.712;2023-04-03T14:45:16;3.93;;;1.00;;
22814;SDS011;11574;51.058;13.712;2023-04-03T14:50:21;5.90;;;1.37;;
22814;SDS011;11574;51.058;13.712;2023-04-03T14:55:24;5.63;;;1.73;;
22814;SDS011;11574;51.058;13.712;2023-04-03T15:00:29;5.30;;;1.30;;
22814;SDS011;11574;51.058;13.712;2023-04-03T15:05:31;6.80;;;1.43;;
22814;SDS011;11574;51.058;13.712;2023-04-03T15:10:34;2.63;;;1.10;;
22814;SDS011;11574;51.058;13.712;2023-04-03T15:15:37;2.37;;;1.03;;
22814;SDS011;11574;51.058;13.712;2023-04-03T15:20:39;7.03;;;1.27;;
22814;SDS011;11574;51.058;13.712;2023-04-03T15:25:43;3.63;;;1.10;;
22814;SDS011;11574;51.058;13.712;2023-04-03T15:30:46;3.47;;;1.20;;
22814;SDS011;11574;51.058;13.712;2023-04-03T15:35:49;5.23;;;1.67;;
22814;SDS011;11574;51.058;13.712;2023-04-03T15:40:51;4.10;;;0.93;;
22814;SDS011;11574;51.058;13.712;2023-04-03T15:45:55;3.73;;;1.10;;
22814;SDS011;11574;51.058;13.712;2023-04-03T15:50:58;2.83;;;1.13;;
22814;SDS011;11574;51.058;13.712;2023-04-03T15:56:01;3.33;;;1.10;;
22814;SDS011;11574;51.058;13.712;2023-04-03T16:01:06;5.27;;;1.40;;
22814;SDS011;11574;51.058;13.712;2023-04-03T16:06:08;3.77;;;1.30;;
22814;SDS011;11574;51.058;13.712;2023-04-03T16:11:10;3.70;;;1.30;;
22814;SDS011;11574;51.058;13.712;2023-04-03T16:16:13;4.57;;;1.23;;
22814;SDS011;11574;51.058;13.712;2023-04-03T16:21:16;7.87;;;1.10;;
22814;SDS011;11574;51.058;13.712;2023-04-03T16:26:19;3.47;;;1.47;;
22814;SDS011;11574;51.058;13.712;2023-04-03T16:31:25;6.97;;;2.50;;
22814;SDS011;11574;51.058;13.712;2023-04-03T16:36:28;6.30;;;2.47;;
22814;SDS011;11574;51.058;13.712;2023-04-03T16:41:30;4.00;;;1.30;;
22814;SDS011;11574;51.058;13.712;2023-04-03T16:46:34;5.10;;;1.00;;
22814;SDS011;11574;51.058;13.712;2023-04-03T16:51:36;4.30;;;1.30;;
22814;SDS011;11574;51.058;13.712;2023-04-03T16:56:38;3.43;;;1.20;;
22814;SDS011;11574;51.058;13.712;2023-04-03T17:01:42;3.67;;;1.10;;
22814;SDS011;11574;51.058;13.712;2023-04-03T17:06:44;2.77;;;1.17;;
22814;SDS011;11574;51.058;13.712;2023-04-03T17:11:47;3.23;;;1.43;;
22814;SDS011;11574;51.058;13.712;2023-04-03T17:16:51;3.83;;;1.30;;
22814;SDS011;11574;51.058;13.712;2023-04-03T17:21:53;3.87;;;1.33;;
22814;SDS011;11574;51.058;13.712;2023-04-03T17:26:55;5.77;;;1.40;;
22814;SDS011;11574;51.058;13.712;2023-04-03T17:31:59;2.97;;;1.27;;
22814;SDS011;11574;51.058;13.712;2023-04-03T17:37:01;5.73;;;2.00;;
22814;SDS011;11574;51.058;13.712;2023-04-03T17:42:03;5.10;;;1.67;;
22814;SDS011;11574;51.058;13.712;2023-04-03T17:47:07;3.13;;;1.43;;
22814;SDS011;11574;51.058;13.712;2023-04-03T17:52:09;2.63;;;1.00;;
22814;SDS011;11574;51.058;13.712;2023-04-03T17:57:11;5.83;;;1.53;;
22814;SDS011;11574;51.058;13.712;2023-04-03T18:02:15;8.07;;;2.00;;
22814;SDS011;11574;51.058;13.712;2023-04-03T18:07:17;2.90;;;1.30;;
22814;SDS011;11574;51.058;13.712;2023-04-03T18:12:19;4.87;;;1.53;;
22814;SDS011;11574;51.058;13.712;2023-04-03T18:17:23;2.97;;;1.43;;
22814;SDS011;11574;51.058;13.712;2023-04-03T18:22:26;3.53;;;1.40;;
22814;SDS011;11574;51.058;13.712;2023-04-03T18:27:28;5.57;;;1.80;;
22814;SDS011;11574;51.058;13.712;2023-04-03T18:32:31;3.90;;;1.87;;
22814;SDS011;11574;51.058;13.712;2023-04-03T18:37:34;12.03;;;2.80;;
22814;SDS011;11574;51.058;13.712;2023-04-03T18:42:38;5.13;;;1.77;;
22814;SDS011;11574;51.058;13.712;2023-04-03T18:47:42;5.30;;;1.95;;
22814;SDS011;11574;51.058;13.712;2023-04-03T18:52:46;3.40;;;1.67;;
22814;SDS011;11574;51.058;13.712;2023-04-03T18:57:49;3.97;;;1.50;;
22814;SDS011;11574;51.058;13.712;2023-04-03T19:02:53;5.40;;;2.47;;
22814;SDS011;11574;51.058;13.712;2023-04-03T19:07:56;5.17;;;2.13;;
22814;SDS011;11574;51.058;13.712;2023-04-03T19:12:58;4.63;;;2.10;;
22814;SDS011;11574;51.058;13.712;2023-04-03T19:18:02;6.63;;;2.43;;
22814;SDS011;11574;51.058;13.712;2023-04-03T19:23:04;5.40;;;1.97;;
22814;SDS011;11574;51.058;13.712;2023-04-03T19:28:08;9.83;;;2.43;;
22814;SDS011;11574;51.058;13.712;2023-04-03T19:33:12;5.13;;;2.60;;
22814;SDS011;11574;51.058;13.712;2023-04-03T19:38:14;5.60;;;2.70;;
22814;SDS011;11574;51.058;13.712;2023-04-03T19:43:16;7.10;;;3.80;;
22814;SDS011;11574;51.058;13.712;2023-04-03T19:48:22;11.70;;;3.80;;
22814;SDS011;11574;51.058;13.712;2023-04-03T19:53:25;6.00;;;3.17;;
22814;SDS011;11574;51.058;13.712;2023-04-03T19:58:28;9.00;;;3.53;;
22814;SDS011;11574;51.058;13.712;2023-04-03T20:03:34;7.73;;;2.80;;
22814;SDS011;11574;51.058;13.712;2023-04-03T20:08:37;6.03;;;2.80;;
22814;SDS011;11574;51.058;13.712;2023-04-03T20:13:39;6.80;;;3.03;;
22814;SDS011;11574;51.058;13.712;2023-04-03T20:18:43;7.00;;;3.07;;
22814;SDS011;11574;51.058;13.712;2023-04-03T20:23:45;5.20;;;2.53;;
22814;SDS011;11574;51.058;13.712;2023-04-03T20:28:47;5.63;;;2.23;;
22814;SDS011;11574;51.058;13.712;2023-04-03T20:33:51;8.60;;;2.83;;
22814;SDS011;11574;51.058;13.712;2023-04-03T20:38:53;7.13;;;2.80;;
22814;SDS011;11574;51.058;13.712;2023-04-03T20:43:56;6.20;;;2.43;;
22814;SDS011;11574;51.058;13.712;2023-04-03T20:49:00;5.93;;;2.63;;
22814;SDS011;11574;51.058;13.712;2023-04-03T20:54:03;6.33;;;2.60;;
22814;SDS011;11574;51.058;13.712;2023-04-03T20:59:05;7.70;;;2.97;;
22814;SDS011;11574;51.058;13.712;2023-04-03T21:04:13;7.37;;;2.60;;
22814;SDS011;11574;51.058;13.712;2023-04-03T21:20:00;5.20;;;2.80;;
22814;SDS011;11574;51.058;13.712;2023-04-03T21:25:03;7.63;;;2.93;;
22814;SDS011;11574;51.058;13.712;2023-04-03T21:30:06;6.73;;;2.50;;
22814;SDS011;11574;51.058;13.712;2023-04-03T21:35:12;6.20;;;2.90;;
22814;SDS011;11574;51.058;13.712;2023-04-03T21:40:14;6.93;;;2.97;;
22814;SDS011;11574;51.058;13.712;2023-04-03T21:45:17;8.37;;;2.13;;
22814;SDS011;11574;51.058;13.712;2023-04-03T21:50:21;9.23;;;2.23;;
22814;SDS011;11574;51.058;13.712;2023-04-03T21:55:25;5.57;;;2.30;;
22814;SDS011;11574;51.058;13.712;2023-04-03T22:00:28;5.00;;;1.80;;
22814;SDS011;11574;51.058;13.712;2023-04-03T22:05:34;5.37;;;2.37;;
22814;SDS011;11574;51.058;13.712;2023-04-03T22:10:36;3.87;;;1.87;;
22814;SDS011;11574;51.058;13.712;2023-04-03T22:15:39;3.77;;;1.53;;
22814;SDS011;11574;51.058;13.712;2023-04-03T22:20:44;5.87;;;1.97;;
22814;SDS011;11574;51.058;13.712;2023-04-03T22:25:55;6.07;;;2.63;;
22814;SDS011;11574;51.058;13.712;2023-04-03T22:30:59;4.40;;;1.70;;
22814;SDS011;11574;51.058;13.712;2023-04-03T22:36:04;5.67;;;1.80;;
22814;SDS011;11574;51.058;13.712;2023-04-03T22:41:07;4.97;;;1.60;;
22814;SDS011;11574;51.058;13.712;2023-04-03T22:46:09;7.60;;;1.73;;
22814;SDS011;11574;51.058;13.712;2023-04-03T22:51:12;7.80;;;1.77;;
22814;SDS011;11574;51.058;13.712;2023-04-03T22:56:15;4.23;;;1.83;;
22814;SDS011;11574;51.058;13.712;2023-04-03T23:01:18;4.73;;;2.10;;
22814;SDS011;11574;51.058;13.712;2023-04-03T23:06:24;3.00;;;1.50;;
22814;SDS011;11574;51.058;13.712;2023-04-03T23:11:27;6.07;;;2.10;;
22814;SDS011;11574;51.058;13.712;2023-04-03T23:16:29;2.37;;;1.57;;
22814;SDS011;11574;51.058;13.712;2023-04-03T23:21:33;4.27;;;1.73;;
22814;SDS011;11574;51.058;13.712;2023-04-03T23:26:36;5.10;;;1.53;;
22814;SDS011;11574;51.058;13.712;2023-04-03T23:31:38;4.80;;;1.73;;
22814;SDS011;11574;51.058;13.712;2023-04-03T23:36:45;4.30;;;1.60;;
22814;SDS011;11574;51.058;13.712;2023-04-03T23:41:47;6.00;;;1.70;;
22814;SDS011;11574;51.058;13.712;2023-04-03T23:46:50;6.53;;;1.97;;
22814;SDS011;11574;51.058;13.712;2023-04-03T23:51:59;2.73;;;1.40;;
22814;SDS011;11574;51.058;13.712;2023-04-03T23:57:01;7.40;;;1.77;;
